createdAt,value
2022-08-03T00:01:25.205Z,5.70
2022-08-03T00:03:51.822Z,6.30
2022-08-03T00:06:18.601Z,6.40
2022-08-03T00:08:45.240Z,6.10
2022-08-03T00:11:11.903Z,7.40
2022-08-03T00:13:38.681Z,8.60
2022-08-03T00:16:05.591Z,7.40
2022-08-03T00:18:32.196Z,6.80
2022-08-03T00:20:58.957Z,7.00
2022-08-03T00:23:26.867Z,5.70
2022-08-03T00:25:54.991Z,7.30
2022-08-03T00:28:21.493Z,6.20
2022-08-03T00:30:48.117Z,6.10
2022-08-03T00:33:14.856Z,5.90
2022-08-03T00:35:51.008Z,6.30
2022-08-03T00:38:18.846Z,6.30
2022-08-03T00:40:45.999Z,5.90
2022-08-03T00:43:12.876Z,6.30
2022-08-03T00:45:43.373Z,6.00
2022-08-03T00:48:29.520Z,6.30
2022-08-03T00:50:59.361Z,6.20
2022-08-03T00:53:27.035Z,5.60
2022-08-03T00:55:53.600Z,5.90
2022-08-03T00:58:20.236Z,6.30
2022-08-03T01:00:46.812Z,6.30
2022-08-03T01:03:13.399Z,5.70
2022-08-03T01:05:51.881Z,5.70
2022-08-03T01:08:46.728Z,6.00
2022-08-03T01:11:34.847Z,5.40
2022-08-03T01:14:35.883Z,5.10
2022-08-03T01:17:17.736Z,5.20
2022-08-03T01:20:03.964Z,5.70
2022-08-03T01:23:12.276Z,5.30
2022-08-03T01:26:32.233Z,5.20
2022-08-03T01:29:39.581Z,6.40
2022-08-03T01:32:59.769Z,5.50
2022-08-03T01:35:09.721Z,5.50
2022-08-03T01:37:51.968Z,5.50
2022-08-03T01:40:22.134Z,6.20
2022-08-03T01:42:51.158Z,5.80
2022-08-03T01:45:19.535Z,5.70
2022-08-03T01:47:48.376Z,6.60
2022-08-03T01:50:19.255Z,5.60
2022-08-03T01:52:48.150Z,5.70
2022-08-03T01:55:19.817Z,5.10
2022-08-03T01:58:06.024Z,5.20
2022-08-03T02:00:37.613Z,5.90
2022-08-03T02:03:10.651Z,5.90
2022-08-03T02:05:39.715Z,5.90
2022-08-03T02:08:08.921Z,5.70
2022-08-03T02:13:33.120Z,5.20
2022-08-03T02:16:03.017Z,4.90
2022-08-03T02:18:33.070Z,5.20
2022-08-03T02:21:10.972Z,4.70
2022-08-03T02:23:39.011Z,5.10
2022-08-03T02:26:12.348Z,5.00
2022-08-03T02:28:45.279Z,5.20
2022-08-03T02:31:21.532Z,5.10
2022-08-03T02:33:54.916Z,4.60
2022-08-03T02:36:28.437Z,5.20
2022-08-03T02:39:01.551Z,4.90
2022-08-03T02:41:38.155Z,5.20
2022-08-03T02:44:10.908Z,5.10
2022-08-03T02:46:45.602Z,5.00
2022-08-03T02:49:41.359Z,5.20
2022-08-03T02:52:05.972Z,6.20
2022-08-03T02:54:41.103Z,5.20
2022-08-03T02:57:10.313Z,5.60
2022-08-03T02:59:39.094Z,4.70
2022-08-03T03:02:06.765Z,5.10
2022-08-03T03:04:35.067Z,4.50
2022-08-03T03:07:04.351Z,5.10
2022-08-03T03:09:40.344Z,4.80
2022-08-03T03:12:11.310Z,4.20
2022-08-03T03:14:39.001Z,4.50
2022-08-03T03:17:11.356Z,5.00
2022-08-03T03:19:40.849Z,4.30
2022-08-03T03:22:09.297Z,4.30
2022-08-03T03:24:38.285Z,4.20
2022-08-03T03:27:05.393Z,4.30
2022-08-03T03:29:36.599Z,4.40
2022-08-03T03:32:09.171Z,4.30
2022-08-03T03:34:37.295Z,3.80
2022-08-03T03:37:05.053Z,4.70
2022-08-03T03:39:32.107Z,5.20
2022-08-03T03:42:00.766Z,4.90
2022-08-03T03:44:31.967Z,4.40
2022-08-03T03:46:58.812Z,4.00
2022-08-03T03:49:26.542Z,4.70
2022-08-03T03:51:55.155Z,4.60
2022-08-03T03:54:21.982Z,4.60
2022-08-03T03:56:52.747Z,4.80
2022-08-03T03:59:19.337Z,4.70
2022-08-03T04:01:45.988Z,4.70
2022-08-03T04:04:31.098Z,4.80
2022-08-03T04:07:16.465Z,4.60
2022-08-03T04:10:14.224Z,4.80
2022-08-03T04:12:50.615Z,4.60
2022-08-03T04:15:21.791Z,5.20
2022-08-03T04:17:50.397Z,4.80
2022-08-03T04:20:21.379Z,5.00
2022-08-03T04:22:52.959Z,4.50
2022-08-03T04:25:25.643Z,4.80
2022-08-03T04:28:29.496Z,5.10
2022-08-03T04:30:48.923Z,5.30
2022-08-03T04:33:17.783Z,5.60
2022-08-03T04:36:01.146Z,5.20
2022-08-03T04:38:32.871Z,5.20
2022-08-03T04:41:01.535Z,4.90
2022-08-03T04:43:30.268Z,4.70
2022-08-03T04:45:58.310Z,4.80
2022-08-03T04:48:25.259Z,4.70
2022-08-03T04:50:52.758Z,5.60
2022-08-03T04:53:19.594Z,5.50
2022-08-03T04:55:46.789Z,5.30
2022-08-03T04:58:13.403Z,6.30
2022-08-03T05:00:39.993Z,5.60
2022-08-03T05:03:23.987Z,6.10
2022-08-03T05:05:52.980Z,6.10
2022-08-03T05:08:20.748Z,5.80
2022-08-03T05:10:55.644Z,5.60
2022-08-03T05:13:26.070Z,6.30
2022-08-03T05:15:52.768Z,5.90
2022-08-03T05:18:19.430Z,6.30
2022-08-03T05:20:45.982Z,6.80
2022-08-03T05:23:12.512Z,7.50
2022-08-03T05:25:39.363Z,7.10
2022-08-03T05:28:05.968Z,6.90
2022-08-03T05:30:34.081Z,7.20
2022-08-03T05:33:03.489Z,7.60
2022-08-03T05:35:57.674Z,8.00
2022-08-03T05:38:24.282Z,7.40
2022-08-03T05:41:20.011Z,6.70
2022-08-03T05:43:43.553Z,7.60
2022-08-03T05:46:12.144Z,7.90
2022-08-03T05:48:39.953Z,8.20
2022-08-03T05:51:07.793Z,8.30
2022-08-03T05:53:35.443Z,7.60
2022-08-03T05:56:03.597Z,9.40
2022-08-03T05:58:46.375Z,9.10
2022-08-03T06:01:13.380Z,9.40
2022-08-03T06:03:40.180Z,9.60
2022-08-03T06:06:06.846Z,8.10
2022-08-03T06:08:34.774Z,8.80
2022-08-03T06:11:01.303Z,8.00
2022-08-03T06:13:27.949Z,8.90
2022-08-03T06:15:54.475Z,7.90
2022-08-03T06:18:21.061Z,8.50
2022-08-03T06:20:49.261Z,9.00
2022-08-03T06:23:17.740Z,8.80
2022-08-03T06:25:45.252Z,8.20
2022-08-03T06:31:01.271Z,5.20
2022-08-03T06:34:30.060Z,4.70
2022-08-03T06:36:15.276Z,4.20
2022-08-03T06:38:41.846Z,5.10
2022-08-03T06:41:08.563Z,4.80
2022-08-03T06:43:37.883Z,5.00
2022-08-03T06:46:05.715Z,5.60
2022-08-03T06:48:32.647Z,5.60
2022-08-03T06:50:59.535Z,5.40
2022-08-03T06:53:26.282Z,4.80
2022-08-03T06:55:55.003Z,5.30
2022-08-03T06:58:22.785Z,5.70
2022-08-03T07:00:49.519Z,5.20
2022-08-03T07:03:16.988Z,4.90
2022-08-03T07:05:46.598Z,4.30
2022-08-03T07:08:14.361Z,4.50
2022-08-03T07:10:41.180Z,4.60
2022-08-03T07:13:07.776Z,4.70
2022-08-03T07:15:54.434Z,5.10
2022-08-03T07:18:27.561Z,4.50
2022-08-03T07:20:57.693Z,4.60
2022-08-03T07:23:25.375Z,4.20
2022-08-03T07:25:52.315Z,3.70
2022-08-03T07:28:19.193Z,3.60
2022-08-03T07:30:45.717Z,3.40
2022-08-03T07:33:12.359Z,3.40
2022-08-03T07:35:39.405Z,3.40
2022-08-03T07:38:06.076Z,3.40
2022-08-03T07:40:32.633Z,3.00
2022-08-03T07:43:00.405Z,3.20
2022-08-03T07:45:27.090Z,3.00
2022-08-03T07:47:54.447Z,3.00
2022-08-03T07:50:22.493Z,3.30
2022-08-03T07:52:52.061Z,3.30
2022-08-03T07:55:26.645Z,3.40
2022-08-03T07:58:23.954Z,3.10
2022-08-03T08:00:53.099Z,3.10
2022-08-03T08:03:21.935Z,3.20
2022-08-03T08:05:49.433Z,2.70
2022-08-03T08:08:16.004Z,3.00
2022-08-03T08:10:42.591Z,2.80
2022-08-03T08:13:25.150Z,3.10
2022-08-03T08:15:52.010Z,3.30
2022-08-03T08:18:18.498Z,3.20
2022-08-03T08:20:45.252Z,3.40
2022-08-03T08:23:37.655Z,3.20
2022-08-03T08:25:58.649Z,3.40
2022-08-03T08:28:32.496Z,4.00
2022-08-03T08:31:01.407Z,4.00
2022-08-03T08:33:42.243Z,3.80
2022-08-03T08:36:15.630Z,4.30
2022-08-03T08:38:44.827Z,4.10
2022-08-03T08:41:13.849Z,4.30
2022-08-03T08:43:42.071Z,4.50
2022-08-03T08:46:13.117Z,4.70
2022-08-03T08:48:51.613Z,4.20
2022-08-03T08:51:21.498Z,4.50
2022-08-03T08:53:53.170Z,4.40
2022-08-03T08:56:25.344Z,4.90
2022-08-03T08:58:58.103Z,4.80
2022-08-03T09:01:25.687Z,4.30
2022-08-03T09:03:54.183Z,4.30
2022-08-03T09:06:22.864Z,4.00
2022-08-03T09:08:49.710Z,4.50
2022-08-03T09:11:16.221Z,4.40
2022-08-03T09:13:42.941Z,4.00
2022-08-03T09:16:14.574Z,4.70
2022-08-03T09:18:53.270Z,4.20
2022-08-03T09:21:32.917Z,3.90
2022-08-03T09:24:06.333Z,4.00
2022-08-03T09:26:36.559Z,4.00
2022-08-03T09:29:14.831Z,4.10
2022-08-03T09:31:45.575Z,4.10
2022-08-03T09:34:18.126Z,3.90
2022-08-03T09:36:48.790Z,3.90
2022-08-03T09:39:41.771Z,4.50
2022-08-03T09:42:23.885Z,4.30
2022-08-03T09:44:52.447Z,4.40
2022-08-03T09:47:45.146Z,4.30
2022-08-03T09:50:12.890Z,4.30
2022-08-03T09:52:52.162Z,4.50
2022-08-03T09:56:33.819Z,4.10
2022-08-03T09:58:12.017Z,4.20
2022-08-03T10:01:00.493Z,4.40
2022-08-03T10:03:32.646Z,4.40
2022-08-03T10:06:00.358Z,4.20
2022-08-03T10:08:27.397Z,4.30
2022-08-03T10:10:54.708Z,4.20
2022-08-03T10:13:23.276Z,4.50
2022-08-03T10:16:22.329Z,4.60
2022-08-03T10:18:37.626Z,4.60
2022-08-03T10:21:10.482Z,4.70
2022-08-03T10:23:39.602Z,4.60
2022-08-03T10:26:10.328Z,4.40
2022-08-03T10:28:48.860Z,4.50
2022-08-03T10:31:18.307Z,4.40
2022-08-03T10:33:53.100Z,4.20
2022-08-03T10:36:24.428Z,4.50
2022-08-03T10:38:53.666Z,4.20
2022-08-03T10:41:23.276Z,4.60
2022-08-03T10:44:18.493Z,4.40
2022-08-03T10:46:47.555Z,4.50
2022-08-03T10:49:34.861Z,4.80
2022-08-03T10:52:08.435Z,4.20
2022-08-03T10:55:10.913Z,4.10
2022-08-03T10:57:47.385Z,4.70
2022-08-03T11:00:27.657Z,4.30
2022-08-03T11:03:14.663Z,4.30
2022-08-03T11:05:49.548Z,4.40
2022-08-03T11:08:28.065Z,4.30
2022-08-03T11:11:00.894Z,4.10
2022-08-03T11:13:32.057Z,4.70
2022-08-03T11:16:04.760Z,4.70
2022-08-03T11:18:33.262Z,4.40
2022-08-03T11:21:00.581Z,4.30
2022-08-03T11:24:04.567Z,4.70
2022-08-03T11:26:33.096Z,4.60
2022-08-03T11:29:31.161Z,4.10
2022-08-03T11:31:58.180Z,4.70
2022-08-03T11:34:25.531Z,4.30
2022-08-03T11:37:21.211Z,4.10
2022-08-03T11:39:52.174Z,4.30
2022-08-03T11:42:24.806Z,4.20
2022-08-03T11:45:01.579Z,4.50
2022-08-03T11:47:30.072Z,4.30
2022-08-03T11:50:02.382Z,4.80
2022-08-03T11:52:36.319Z,4.30
2022-08-03T11:55:08.917Z,4.40
2022-08-03T11:59:10.650Z,4.30
2022-08-03T12:00:31.904Z,4.50
2022-08-03T12:03:08.217Z,4.60
2022-08-03T12:05:51.086Z,4.70
2022-08-03T12:08:32.557Z,4.90
2022-08-03T12:11:02.293Z,4.50
2022-08-03T12:14:32.972Z,4.50
2022-08-03T12:16:29.543Z,4.50
2022-08-03T12:19:02.091Z,4.30
2022-08-03T12:21:29.830Z,4.20
2022-08-03T12:24:00.306Z,4.60
2022-08-03T12:26:29.306Z,4.20
2022-08-03T12:28:56.358Z,4.00
2022-08-03T12:31:22.954Z,4.70
2022-08-03T12:34:05.123Z,4.40
2022-08-03T12:36:34.971Z,4.50
2022-08-03T12:39:07.356Z,4.60
2022-08-03T12:41:39.221Z,4.50
2022-08-03T12:44:08.313Z,4.90
2022-08-03T12:46:47.527Z,4.90
2022-08-03T12:49:18.782Z,4.50
2022-08-03T12:51:45.292Z,4.40
2022-08-03T12:54:25.140Z,4.40
2022-08-03T12:57:08.074Z,4.50
2022-08-03T12:59:40.791Z,4.70
2022-08-03T13:02:26.562Z,4.40
2022-08-03T13:04:55.313Z,4.50
2022-08-03T13:07:23.355Z,5.00
2022-08-03T13:09:53.650Z,4.70
2022-08-03T13:12:23.202Z,4.70
2022-08-03T13:14:57.897Z,4.40
2022-08-03T13:17:25.621Z,4.60
2022-08-03T13:19:53.569Z,4.70
2022-08-03T13:22:32.914Z,4.80
2022-08-03T13:25:01.305Z,5.10
2022-08-03T13:28:11.075Z,4.70
2022-08-03T13:30:24.980Z,4.80
2022-08-03T13:32:58.622Z,4.60
2022-08-03T13:35:25.602Z,4.60
2022-08-03T13:37:52.134Z,4.90
2022-08-03T13:40:18.746Z,4.80
2022-08-03T13:42:50.363Z,4.80
2022-08-03T13:45:17.074Z,5.40
2022-08-03T13:47:43.588Z,5.10
2022-08-03T13:50:10.191Z,5.20
2022-08-03T13:52:36.923Z,5.40
2022-08-03T13:55:06.356Z,4.70
2022-08-03T13:58:06.102Z,4.50
2022-08-03T14:00:26.391Z,4.70
2022-08-03T14:03:04.047Z,4.50
2022-08-03T14:05:32.789Z,4.80
2022-08-03T14:08:05.673Z,5.20
2022-08-03T14:10:44.022Z,5.10
2022-08-03T14:13:16.618Z,4.90
2022-08-03T14:15:50.874Z,5.30
2022-08-03T14:18:29.136Z,5.10
2022-08-03T14:21:05.827Z,5.00
2022-08-03T14:23:35.192Z,4.70
2022-08-03T14:26:01.803Z,4.90
2022-08-03T14:28:28.731Z,5.20
2022-08-03T14:30:56.143Z,5.00
2022-08-03T14:33:23.832Z,5.00
2022-08-03T14:35:51.816Z,4.80
2022-08-03T14:38:19.499Z,5.30
2022-08-03T14:40:46.560Z,5.20
2022-08-03T14:43:13.936Z,5.10
2022-08-03T14:45:41.310Z,5.00
2022-08-03T14:50:31.596Z,4.60
2022-08-03T14:50:55.513Z,5.30
2022-08-03T14:53:23.018Z,5.40
2022-08-03T14:55:51.911Z,5.10
2022-08-03T14:58:21.858Z,4.90
2022-08-03T15:00:50.705Z,5.40
2022-08-03T15:03:23.727Z,4.90
2022-08-03T15:05:57.387Z,5.60
2022-08-03T15:08:26.527Z,5.50
2022-08-03T15:10:54.494Z,5.30
2022-08-03T15:13:21.828Z,5.60
2022-08-03T15:15:49.710Z,5.40
2022-08-03T15:18:16.332Z,5.10
2022-08-03T15:20:45.785Z,5.50
2022-08-03T15:23:15.630Z,5.80
2022-08-03T15:26:04.010Z,5.50
2022-08-03T15:28:32.238Z,5.90
2022-08-03T15:30:58.863Z,5.50
2022-08-03T15:33:25.577Z,6.00
2022-08-03T15:35:53.009Z,5.40
2022-08-03T15:38:22.931Z,5.60
2022-08-03T15:40:54.644Z,5.30
2022-08-03T15:43:23.017Z,5.80
2022-08-03T15:45:54.616Z,6.50
2022-08-03T15:48:36.348Z,6.60
2022-08-03T15:51:03.863Z,5.70
2022-08-03T15:53:30.490Z,6.10
2022-08-03T15:55:57.049Z,5.80
2022-08-03T15:59:03.759Z,6.00
2022-08-03T16:01:10.968Z,6.10
2022-08-03T16:03:37.722Z,6.10
2022-08-03T16:06:06.712Z,6.10
2022-08-03T16:08:34.169Z,5.90
2022-08-03T16:11:01.436Z,5.90
2022-08-03T16:14:13.820Z,6.10
2022-08-03T16:16:14.699Z,5.80
2022-08-03T16:18:42.002Z,6.50
2022-08-03T16:21:08.549Z,6.60
2022-08-03T16:23:40.656Z,6.10
2022-08-03T16:26:10.067Z,6.30
2022-08-03T16:28:38.190Z,6.60
2022-08-03T16:31:06.103Z,6.10
2022-08-03T16:33:33.580Z,6.20
2022-08-03T16:36:00.293Z,6.20
2022-08-03T16:38:26.917Z,5.90
2022-08-03T16:40:53.467Z,6.20
2022-08-03T16:43:22.408Z,6.50
2022-08-03T16:45:49.625Z,6.30
2022-08-03T16:48:18.142Z,6.10
2022-08-03T16:50:46.232Z,6.50
2022-08-03T16:53:16.477Z,6.30
2022-08-03T16:55:52.404Z,6.80
2022-08-03T16:58:34.278Z,6.70
2022-08-03T17:01:24.166Z,6.70
2022-08-03T17:04:03.183Z,6.50
2022-08-03T17:06:36.284Z,6.20
2022-08-03T17:09:09.901Z,6.50
2022-08-03T17:11:47.141Z,6.00
2022-08-03T17:14:17.024Z,6.20
2022-08-03T17:16:53.097Z,6.30
2022-08-03T17:19:24.544Z,6.20
2022-08-03T17:22:27.233Z,6.90
2022-08-03T17:25:07.346Z,6.80
2022-08-03T17:28:48.990Z,6.60
2022-08-03T17:30:43.285Z,7.00
2022-08-03T17:33:12.038Z,6.60
2022-08-03T17:35:48.058Z,7.10
2022-08-03T17:38:22.456Z,7.30
2022-08-03T17:40:50.269Z,7.30
2022-08-03T17:44:13.645Z,7.50
2022-08-03T17:46:10.629Z,7.00
2022-08-03T17:48:41.507Z,7.10
2022-08-03T17:51:46.371Z,7.70
2022-08-03T17:54:21.477Z,6.90
2022-08-03T17:57:22.348Z,8.00
2022-08-03T18:00:29.510Z,7.80
2022-08-03T18:03:27.918Z,7.80
2022-08-03T18:06:11.303Z,8.30
2022-08-03T18:08:51.004Z,8.30
2022-08-03T18:11:22.800Z,8.60
2022-08-03T18:14:16.673Z,8.30
2022-08-03T18:17:02.298Z,9.30
2022-08-03T18:20:03.631Z,8.80
2022-08-03T18:22:21.013Z,9.30
2022-08-03T18:24:53.303Z,9.60
2022-08-03T18:27:23.272Z,9.30
2022-08-03T18:30:12.181Z,9.70
2022-08-03T18:32:39.104Z,10.00
2022-08-03T18:35:06.844Z,9.60
2022-08-03T18:37:52.443Z,9.20
2022-08-03T18:40:20.847Z,9.70
2022-08-03T18:42:52.858Z,10.20
2022-08-03T18:45:57.600Z,11.00
2022-08-03T18:48:46.051Z,10.30
2022-08-03T18:51:33.847Z,10.10
2022-08-03T18:54:53.439Z,10.50
2022-08-03T18:57:30.359Z,11.10
2022-08-03T19:00:16.112Z,10.20
2022-08-03T19:02:56.631Z,9.80
2022-08-03T19:05:55.110Z,10.60
2022-08-03T19:08:29.216Z,9.30
2022-08-03T19:11:06.156Z,9.80
2022-08-03T19:13:50.360Z,9.90
2022-08-03T19:16:39.486Z,12.30
2022-08-03T19:19:14.365Z,13.40
2022-08-03T19:21:41.749Z,12.40
2022-08-03T19:24:10.420Z,11.60
2022-08-03T19:26:39.565Z,11.10
2022-08-03T19:29:14.723Z,10.90
2022-08-03T19:31:58.871Z,12.40
2022-08-03T19:34:29.950Z,11.10
2022-08-03T19:36:58.790Z,11.00
2022-08-03T19:39:25.776Z,11.60
2022-08-03T19:41:58.613Z,12.30
2022-08-03T19:44:42.915Z,12.30
2022-08-03T19:47:30.919Z,11.20
2022-08-03T19:50:05.764Z,11.20
2022-08-03T19:52:42.319Z,11.00
2022-08-03T19:55:12.120Z,11.10
2022-08-03T19:57:46.740Z,11.00
2022-08-03T20:00:26.051Z,12.00
2022-08-03T20:02:53.785Z,12.50
2022-08-03T20:05:20.707Z,12.70
2022-08-03T20:07:49.826Z,12.10
2022-08-03T20:10:18.302Z,10.60
2022-08-03T20:12:47.483Z,10.70
2022-08-03T20:15:18.256Z,10.00
2022-08-03T20:17:56.062Z,12.10
2022-08-03T20:20:35.135Z,11.00
2022-08-03T20:23:10.104Z,11.80
2022-08-03T20:25:48.775Z,11.90
2022-08-03T20:28:31.165Z,12.60
2022-08-03T20:30:58.508Z,11.20
2022-08-03T20:33:27.901Z,11.30
2022-08-03T20:36:15.807Z,13.60
2022-08-03T20:38:47.219Z,11.50
2022-08-03T20:41:15.549Z,13.00
2022-08-03T20:43:42.294Z,11.90
2022-08-03T20:46:31.719Z,11.80
2022-08-03T20:48:58.715Z,11.40
2022-08-03T20:51:50.278Z,12.80
2022-08-03T20:54:22.968Z,12.30
2022-08-03T20:57:04.190Z,12.50
2022-08-03T20:59:50.420Z,11.30
2022-08-03T21:02:29.959Z,13.00
2022-08-03T21:05:03.794Z,12.00
2022-08-03T21:07:45.613Z,12.70
2022-08-03T21:10:32.236Z,13.90
2022-08-03T21:13:18.799Z,12.80
2022-08-03T21:16:06.615Z,11.80
2022-08-03T21:18:52.192Z,12.20
2022-08-03T21:21:22.680Z,12.90
2022-08-03T21:23:53.505Z,12.30
2022-08-03T21:26:24.079Z,12.70
2022-08-03T21:28:54.744Z,13.00
2022-08-03T21:31:25.390Z,13.50
2022-08-03T21:34:04.033Z,12.20
2022-08-03T21:36:37.384Z,13.90
2022-08-03T21:39:08.177Z,12.90
2022-08-03T21:41:37.152Z,13.10
2022-08-03T21:44:05.453Z,12.40
2022-08-03T21:46:39.074Z,13.60
2022-08-03T21:49:51.759Z,14.30
2022-08-03T21:51:59.465Z,13.50
2022-08-03T21:54:37.893Z,13.40
2022-08-03T21:57:13.129Z,12.80
2022-08-03T21:59:52.130Z,13.40
2022-08-03T22:02:24.551Z,13.60
2022-08-03T22:04:56.960Z,14.60
2022-08-03T22:07:29.192Z,14.30
2022-08-03T22:09:58.843Z,15.50
2022-08-03T22:12:29.988Z,14.00
2022-08-03T22:15:00.773Z,13.00
2022-08-03T22:17:55.811Z,13.40
2022-08-03T22:20:21.848Z,13.00
2022-08-03T22:22:56.038Z,12.70
2022-08-03T22:25:29.474Z,12.20
2022-08-03T22:28:00.070Z,11.80
2022-08-03T22:30:27.710Z,11.70
2022-08-03T22:32:56.465Z,11.40
2022-08-03T22:35:26.472Z,13.40
2022-08-03T22:37:57.193Z,14.10
2022-08-03T22:40:24.047Z,13.00
2022-08-03T22:42:52.634Z,12.70
2022-08-03T22:46:07.068Z,11.50
2022-08-03T22:48:08.522Z,11.00
2022-08-03T22:50:35.789Z,10.60
2022-08-03T22:53:03.234Z,10.80
2022-08-03T22:55:31.424Z,10.10
2022-08-03T22:57:58.093Z,10.50
2022-08-03T23:00:24.921Z,12.40
2022-08-03T23:02:54.998Z,12.10
2022-08-03T23:06:00.610Z,11.10
2022-08-03T23:08:18.011Z,10.50
2022-08-03T23:10:47.480Z,9.90
2022-08-03T23:13:19.253Z,11.10
2022-08-03T23:16:00.656Z,11.20
2022-08-03T23:18:34.121Z,10.50
2022-08-03T23:21:11.792Z,10.60
2022-08-03T23:23:44.593Z,11.60
2022-08-03T23:26:13.554Z,11.00
2022-08-03T23:28:45.281Z,10.50
2022-08-03T23:31:15.522Z,10.30
2022-08-03T23:33:45.653Z,12.70
2022-08-03T23:36:31.188Z,12.40
2022-08-03T23:39:02.397Z,14.00
2022-08-03T23:41:32.296Z,12.40
2022-08-03T23:44:03.817Z,14.50
2022-08-03T23:46:31.073Z,14.50
2022-08-03T23:48:59.867Z,14.40
2022-08-03T23:51:57.498Z,12.40
2022-08-03T23:54:51.308Z,11.30
2022-08-03T23:57:57.745Z,13.60
